createdAt,value
2022-10-05T00:01:24.143Z,9.03
2022-10-05T00:03:54.469Z,9.08
2022-10-05T00:06:22.469Z,9.07
2022-10-05T00:08:50.424Z,9.07
2022-10-05T00:11:18.878Z,9.07
2022-10-05T00:13:47.309Z,9.02
2022-10-05T00:16:17.741Z,9.01
2022-10-05T00:18:48.385Z,9.01
2022-10-05T00:21:24.701Z,9.08
2022-10-05T00:23:53.811Z,9.11
2022-10-05T00:26:23.218Z,9.12
2022-10-05T00:28:51.542Z,9.15
2022-10-05T00:31:21.310Z,9.08
2022-10-05T00:33:50.070Z,9.10
2022-10-05T00:36:19.026Z,9.10
2022-10-05T00:38:48.849Z,9.11
2022-10-05T00:41:22.122Z,9.01
2022-10-05T00:43:58.271Z,8.98
2022-10-05T00:46:28.461Z,8.97
2022-10-05T00:49:01.901Z,8.93
2022-10-05T00:51:31.441Z,8.88
2022-10-05T00:54:08.983Z,8.90
2022-10-05T00:56:48.762Z,8.82
2022-10-05T00:59:23.039Z,8.75
2022-10-05T01:01:58.539Z,8.76
2022-10-05T01:04:30.469Z,8.75
2022-10-05T01:07:07.612Z,8.69
2022-10-05T01:09:43.077Z,8.66
2022-10-05T01:12:16.037Z,8.62
2022-10-05T01:14:49.287Z,8.56
2022-10-05T01:17:20.783Z,8.47
2022-10-05T01:19:59.828Z,8.47
2022-10-05T01:22:37.939Z,8.48
2022-10-05T01:25:16.709Z,8.40
2022-10-05T01:27:52.221Z,8.45
2022-10-05T01:30:21.771Z,8.39
2022-10-05T01:32:52.334Z,8.44
2022-10-05T01:35:27.304Z,8.45
2022-10-05T01:38:02.704Z,8.45
2022-10-05T01:40:36.309Z,8.45
2022-10-05T01:43:12.111Z,8.47
2022-10-05T01:45:45.133Z,8.46
2022-10-05T01:48:19.194Z,8.39
2022-10-05T01:50:51.386Z,8.38
2022-10-05T01:53:24.954Z,8.42
2022-10-05T01:55:57.949Z,8.36
2022-10-05T01:58:33.659Z,8.37
2022-10-05T02:01:06.897Z,8.36
2022-10-05T02:03:39.247Z,8.34
2022-10-05T02:06:11.367Z,8.30
2022-10-05T02:08:42.120Z,8.35
2022-10-05T02:11:12.570Z,8.36
2022-10-05T02:13:44.522Z,8.35
2022-10-05T02:16:17.019Z,8.40
2022-10-05T02:18:48.847Z,8.32
2022-10-05T02:21:16.982Z,8.29
2022-10-05T02:23:46.782Z,8.22
2022-10-05T02:26:15.099Z,8.25
2022-10-05T02:28:49.107Z,8.29
2022-10-05T02:31:19.129Z,8.31
2022-10-05T02:33:47.487Z,8.32
2022-10-05T02:36:16.901Z,8.31
2022-10-05T02:38:51.350Z,8.25
2022-10-05T02:41:25.543Z,8.23
2022-10-05T02:44:01.182Z,8.19
2022-10-05T02:46:32.947Z,8.22
2022-10-05T02:49:07.445Z,8.17
2022-10-05T02:51:39.900Z,8.16
2022-10-05T02:54:12.614Z,8.12
2022-10-05T02:56:44.572Z,8.09
2022-10-05T02:59:16.591Z,8.07
2022-10-05T03:01:48.685Z,8.08
2022-10-05T03:04:22.821Z,8.08
2022-10-05T03:06:55.859Z,8.08
2022-10-05T03:09:26.752Z,8.08
2022-10-05T03:11:59.091Z,8.08
2022-10-05T03:14:33.352Z,8.07
2022-10-05T03:17:07.198Z,8.05
2022-10-05T03:19:45.701Z,7.97
2022-10-05T03:22:22.475Z,7.97
2022-10-05T03:24:59.015Z,7.98
2022-10-05T03:27:32.973Z,7.93
2022-10-05T03:30:05.372Z,7.88
2022-10-05T03:32:40.981Z,7.91
2022-10-05T03:35:13.412Z,7.93
2022-10-05T03:37:47.478Z,7.91
2022-10-05T03:40:23.158Z,7.87
2022-10-05T03:42:59.157Z,7.84
2022-10-05T03:45:32.039Z,7.89
2022-10-05T03:48:04.508Z,7.91
2022-10-05T03:50:40.816Z,7.87
2022-10-05T03:53:13.733Z,7.86
2022-10-05T03:55:45.318Z,7.86
2022-10-05T03:58:16.699Z,7.86
2022-10-05T04:00:49.231Z,7.79
2022-10-05T04:03:20.325Z,7.88
2022-10-05T04:05:50.673Z,7.91
2022-10-05T04:08:22.219Z,7.95
2022-10-05T04:10:52.315Z,7.93
2022-10-05T04:13:23.661Z,7.89
2022-10-05T04:15:56.997Z,7.89
2022-10-05T04:18:27.702Z,7.90
2022-10-05T04:20:57.351Z,7.90
2022-10-05T04:23:30.443Z,7.96
2022-10-05T04:26:03.827Z,7.96
2022-10-05T04:28:35.163Z,8.01
2022-10-05T04:31:07.170Z,8.05
2022-10-05T04:33:35.310Z,8.09
2022-10-05T04:36:13.366Z,8.12
2022-10-05T04:38:49.113Z,8.13
2022-10-05T04:41:30.523Z,8.20
2022-10-05T04:44:03.832Z,8.26
2022-10-05T04:46:41.841Z,8.29
2022-10-05T04:49:15.313Z,8.25
2022-10-05T04:51:51.170Z,8.27
2022-10-05T04:54:24.445Z,8.28
2022-10-05T04:56:55.038Z,8.30
2022-10-05T04:59:32.359Z,8.34
2022-10-05T05:02:06.842Z,8.38
2022-10-05T05:04:42.473Z,8.47
2022-10-05T05:07:17.173Z,8.49
2022-10-05T05:10:02.167Z,8.52
2022-10-05T05:12:41.889Z,8.58
2022-10-05T05:15:31.828Z,8.53
2022-10-05T05:18:12.099Z,8.55
2022-10-05T05:20:50.266Z,8.52
2022-10-05T05:23:22.381Z,8.48
2022-10-05T05:25:58.056Z,8.50
2022-10-05T05:28:31.217Z,8.53
2022-10-05T05:31:05.727Z,8.53
2022-10-05T05:33:41.625Z,8.58
2022-10-05T05:36:27.230Z,8.60
2022-10-05T05:39:01.853Z,8.66
2022-10-05T05:41:37.072Z,8.77
2022-10-05T05:44:07.603Z,8.81
2022-10-05T05:46:58.715Z,8.84
2022-10-05T05:49:32.556Z,8.89
2022-10-05T05:52:03.163Z,8.83
2022-10-05T05:54:35.582Z,8.75
2022-10-05T05:57:13.889Z,8.69
2022-10-05T05:59:50.206Z,8.63
2022-10-05T06:02:21.405Z,8.60
2022-10-05T06:04:52.646Z,8.77
2022-10-05T06:07:28.043Z,8.85
2022-10-05T06:10:02.338Z,8.79
2022-10-05T06:12:34.767Z,8.72
2022-10-05T06:15:05.392Z,8.70
2022-10-05T06:17:37.074Z,8.59
2022-10-05T06:20:13.221Z,8.66
2022-10-05T06:22:44.914Z,8.70
2022-10-05T06:25:22.916Z,8.88
2022-10-05T06:28:01.223Z,8.90
2022-10-05T06:30:33.440Z,9.10
2022-10-05T06:33:08.827Z,9.24
2022-10-05T06:35:45.409Z,9.34
2022-10-05T06:38:24.673Z,9.44
2022-10-05T06:40:59.670Z,9.40
2022-10-05T06:43:36.731Z,9.36
2022-10-05T06:46:08.767Z,9.43
2022-10-05T06:48:52.393Z,9.49
2022-10-05T06:51:24.395Z,9.59
2022-10-05T06:53:58.763Z,9.68
2022-10-05T06:56:29.965Z,9.66
2022-10-05T06:59:01.738Z,9.64
2022-10-05T07:01:40.340Z,9.78
2022-10-05T07:04:36.061Z,9.80
2022-10-05T07:07:10.874Z,9.78
2022-10-05T07:09:44.032Z,9.75
2022-10-05T07:12:21.488Z,9.74
2022-10-05T07:14:57.834Z,9.83
2022-10-05T07:17:30.193Z,9.90
2022-10-05T07:20:04.839Z,10.01
2022-10-05T07:22:41.569Z,10.01
2022-10-05T07:25:15.273Z,9.99
2022-10-05T07:27:51.066Z,9.99
2022-10-05T07:30:20.485Z,10.17
2022-10-05T07:32:53.252Z,10.37
2022-10-05T07:35:43.996Z,10.47
2022-10-05T07:38:14.748Z,10.52
2022-10-05T07:40:48.536Z,10.40
2022-10-05T07:43:24.406Z,10.29
2022-10-05T07:45:54.998Z,10.17
2022-10-05T07:48:24.551Z,10.07
2022-10-05T07:51:00.350Z,10.04
2022-10-05T07:53:32.806Z,10.00
2022-10-05T07:56:10.103Z,9.92
2022-10-05T07:58:42.521Z,9.97
2022-10-05T08:01:17.137Z,9.80
2022-10-05T08:03:50.048Z,9.78
2022-10-05T08:06:21.733Z,9.86
2022-10-05T08:08:52.860Z,9.90
2022-10-05T08:11:26.166Z,9.95
2022-10-05T08:13:57.468Z,9.81
2022-10-05T08:16:28.918Z,9.72
2022-10-05T08:18:58.692Z,9.69
2022-10-05T08:21:29.189Z,9.70
2022-10-05T08:23:59.346Z,9.73
2022-10-05T08:26:34.236Z,9.87
2022-10-05T08:29:13.822Z,10.00
2022-10-05T08:31:45.257Z,10.08
2022-10-05T08:34:22.359Z,10.33
2022-10-05T08:36:55.932Z,10.46
2022-10-05T08:39:28.972Z,10.86
2022-10-05T08:42:29.840Z,11.20
2022-10-05T08:45:10.934Z,11.22
2022-10-05T08:47:53.619Z,11.52
2022-10-05T08:50:26.775Z,11.33
2022-10-05T08:53:09.963Z,10.98
2022-10-05T08:55:44.736Z,10.88
2022-10-05T08:58:27.089Z,10.75
2022-10-05T09:01:01.382Z,10.51
2022-10-05T09:03:47.371Z,10.59
2022-10-05T09:06:39.174Z,10.08
2022-10-05T09:09:19.835Z,10.00
2022-10-05T09:11:58.331Z,10.13
2022-10-05T09:14:35.056Z,10.17
2022-10-05T09:17:10.623Z,10.30
2022-10-05T09:19:57.514Z,10.01
2022-10-05T09:22:35.549Z,9.84
2022-10-05T09:25:11.167Z,9.85
2022-10-05T09:27:40.734Z,9.82
2022-10-05T09:30:23.673Z,9.75
2022-10-05T09:33:09.469Z,9.72
2022-10-05T09:35:57.438Z,9.92
2022-10-05T09:38:31.614Z,10.03
2022-10-05T09:41:29.489Z,10.51
2022-10-05T09:44:24.587Z,10.90
2022-10-05T09:47:04.714Z,11.16
2022-10-05T09:49:51.758Z,11.01
2022-10-05T09:52:38.085Z,10.79
2022-10-05T09:55:25.830Z,10.41
2022-10-05T09:58:12.075Z,10.23
2022-10-05T10:01:09.090Z,10.17
2022-10-05T10:04:07.550Z,10.22
2022-10-05T10:06:51.475Z,9.73
2022-10-05T10:09:27.452Z,9.36
2022-10-05T10:12:05.907Z,9.41
2022-10-05T10:15:11.938Z,9.18
2022-10-05T10:18:02.117Z,9.25
2022-10-05T10:20:37.782Z,9.54
2022-10-05T10:23:16.788Z,9.97
2022-10-05T10:26:02.982Z,10.34
2022-10-05T10:28:45.128Z,10.81
2022-10-05T10:31:19.300Z,11.40
2022-10-05T10:34:00.247Z,11.73
2022-10-05T10:36:39.278Z,12.64
2022-10-05T10:39:14.055Z,12.69
2022-10-05T10:41:57.444Z,13.34
2022-10-05T10:44:43.998Z,13.18
2022-10-05T10:47:26.245Z,13.09
2022-10-05T10:50:08.592Z,12.65
2022-10-05T10:52:49.303Z,12.46
2022-10-05T10:55:26.738Z,13.05
2022-10-05T10:58:13.633Z,13.03
2022-10-05T11:00:50.390Z,12.71
2022-10-05T11:03:37.398Z,12.39
2022-10-05T11:06:18.417Z,11.87
2022-10-05T11:08:57.291Z,11.94
2022-10-05T11:11:40.068Z,11.51
2022-10-05T11:14:30.164Z,11.54
2022-10-05T11:17:11.003Z,11.50
2022-10-05T11:20:03.178Z,11.09
2022-10-05T11:22:53.433Z,10.77
2022-10-05T11:25:44.687Z,10.80
2022-10-05T11:28:28.460Z,10.75
2022-10-05T11:31:12.166Z,10.67
2022-10-05T11:34:05.264Z,10.52
2022-10-05T11:36:44.044Z,10.53
2022-10-05T11:39:39.698Z,10.45
2022-10-05T11:42:15.462Z,10.33
2022-10-05T11:45:07.712Z,10.02
2022-10-05T11:47:41.151Z,9.80
2022-10-05T11:50:18.679Z,9.74
2022-10-05T11:52:49.632Z,9.69
2022-10-05T11:55:23.549Z,9.72
2022-10-05T11:57:54.570Z,9.64
2022-10-05T12:00:24.624Z,9.44
2022-10-05T12:03:16.376Z,9.36
2022-10-05T12:05:50.794Z,9.26
2022-10-05T12:08:25.194Z,9.35
2022-10-05T12:11:00.218Z,9.39
2022-10-05T12:13:35.804Z,9.69
2022-10-05T12:16:09.306Z,9.83
2022-10-05T12:18:48.343Z,9.79
2022-10-05T12:21:23.037Z,10.03
2022-10-05T12:23:53.996Z,10.15
2022-10-05T12:26:25.944Z,10.09
2022-10-05T12:28:57.493Z,10.08
2022-10-05T12:31:31.748Z,9.41
2022-10-05T12:34:06.818Z,9.66
2022-10-05T12:36:59.630Z,10.08
2022-10-05T12:39:33.153Z,10.14
2022-10-05T12:42:08.917Z,10.10
2022-10-05T12:44:44.308Z,10.11
2022-10-05T12:47:18.139Z,9.97
2022-10-05T12:50:02.144Z,9.85
2022-10-05T12:52:46.305Z,9.37
2022-10-05T12:55:18.315Z,9.44
2022-10-05T12:57:49.350Z,9.30
2022-10-05T13:00:22.694Z,9.08
2022-10-05T13:02:52.402Z,9.01
2022-10-05T13:05:27.105Z,9.25
2022-10-05T13:08:09.059Z,9.29
2022-10-05T13:10:39.731Z,9.21
2022-10-05T13:13:16.989Z,9.22
2022-10-05T13:15:48.753Z,9.17
2022-10-05T13:18:22.527Z,9.08
2022-10-05T13:20:58.227Z,9.12
2022-10-05T13:23:31.514Z,9.16
2022-10-05T13:26:03.307Z,9.19
2022-10-05T13:28:34.482Z,9.08
2022-10-05T13:31:05.445Z,9.20
2022-10-05T13:33:42.162Z,9.18
2022-10-05T13:36:15.639Z,9.41
2022-10-05T13:38:50.378Z,9.22
2022-10-05T13:41:24.744Z,9.23
2022-10-05T13:44:00.315Z,9.14
2022-10-05T13:46:35.944Z,9.06
2022-10-05T13:49:09.605Z,8.95
2022-10-05T13:51:41.427Z,9.03
2022-10-05T13:54:15.841Z,8.85
2022-10-05T13:56:46.171Z,8.94
2022-10-05T13:59:17.729Z,8.81
2022-10-05T14:01:51.690Z,8.61
2022-10-05T14:04:21.313Z,8.67
2022-10-05T14:06:51.951Z,8.69
2022-10-05T14:09:30.950Z,8.72
2022-10-05T14:12:13.605Z,8.52
2022-10-05T14:14:46.493Z,8.46
2022-10-05T14:17:16.256Z,8.48
2022-10-05T14:19:45.855Z,8.38
2022-10-05T14:22:17.906Z,8.39
2022-10-05T14:24:51.465Z,8.42
2022-10-05T14:27:24.165Z,8.50
2022-10-05T14:30:00.004Z,8.53
2022-10-05T14:32:28.916Z,8.45
2022-10-05T14:35:01.280Z,8.50
2022-10-05T14:37:44.833Z,8.45
2022-10-05T14:40:23.733Z,8.45
2022-10-05T14:42:52.509Z,8.32
2022-10-05T14:45:22.533Z,8.16
2022-10-05T14:47:52.354Z,8.13
2022-10-05T14:50:25.846Z,8.02
2022-10-05T14:53:16.808Z,7.95
2022-10-05T14:55:57.270Z,7.86
2022-10-05T14:58:43.474Z,7.75
2022-10-05T15:01:17.083Z,7.75
2022-10-05T15:03:48.704Z,7.77
2022-10-05T15:06:22.701Z,7.67
2022-10-05T15:09:32.929Z,7.68
2022-10-05T15:12:03.764Z,7.57
2022-10-05T15:14:33.211Z,7.61
2022-10-05T15:17:03.558Z,7.59
2022-10-05T15:19:38.212Z,7.50
2022-10-05T15:22:14.917Z,7.61
2022-10-05T15:24:45.730Z,7.53
2022-10-05T15:27:19.566Z,7.51
2022-10-05T15:29:56.598Z,7.59
2022-10-05T15:32:34.063Z,7.58
2022-10-05T15:35:14.072Z,7.69
2022-10-05T15:37:44.520Z,7.75
2022-10-05T15:40:20.336Z,7.75
2022-10-05T15:42:54.425Z,7.70
2022-10-05T15:45:25.728Z,7.75
2022-10-05T15:47:55.199Z,7.65
2022-10-05T15:50:25.970Z,7.76
2022-10-05T15:52:57.598Z,7.70
2022-10-05T15:55:32.281Z,7.64
2022-10-05T15:58:11.860Z,7.68
2022-10-05T16:00:42.693Z,7.84
2022-10-05T16:03:19.138Z,7.86
2022-10-05T16:06:08.907Z,7.94
2022-10-05T16:08:56.933Z,7.88
2022-10-05T16:11:43.081Z,7.84
2022-10-05T16:14:21.473Z,7.83
2022-10-05T16:16:57.757Z,7.89
2022-10-05T16:19:29.745Z,7.89
2022-10-05T16:22:03.528Z,7.83
2022-10-05T16:24:45.139Z,7.90
2022-10-05T16:27:17.511Z,7.77
2022-10-05T16:29:55.124Z,7.78
2022-10-05T16:32:25.874Z,7.64
2022-10-05T16:34:59.935Z,7.51
2022-10-05T16:37:32.939Z,7.48
2022-10-05T16:40:03.746Z,7.43
2022-10-05T16:42:42.664Z,7.41
2022-10-05T16:45:28.698Z,7.34
2022-10-05T16:48:03.929Z,7.27
2022-10-05T16:50:37.415Z,7.24
2022-10-05T16:53:11.227Z,7.06
2022-10-05T16:55:41.536Z,7.27
2022-10-05T16:58:15.915Z,7.25
2022-10-05T17:00:53.008Z,7.25
2022-10-05T17:03:30.779Z,7.21
2022-10-05T17:06:26.149Z,7.25
2022-10-05T17:09:12.394Z,7.20
2022-10-05T17:11:46.828Z,7.31
2022-10-05T17:14:21.605Z,7.32
2022-10-05T17:16:58.019Z,7.26
2022-10-05T17:19:33.206Z,7.34
2022-10-05T17:22:03.388Z,7.30
2022-10-05T17:24:42.950Z,7.39
2022-10-05T17:27:18.001Z,7.41
2022-10-05T17:29:50.096Z,7.44
2022-10-05T17:32:39.702Z,7.39
2022-10-05T17:35:20.504Z,7.51
2022-10-05T17:38:07.690Z,7.51
2022-10-05T17:40:36.749Z,7.45
2022-10-05T17:43:06.884Z,7.51
2022-10-05T17:45:55.486Z,7.46
2022-10-05T17:48:42.100Z,7.43
2022-10-05T17:51:58.199Z,7.43
2022-10-05T17:54:48.181Z,7.39
2022-10-05T17:57:22.135Z,7.27
2022-10-05T17:59:58.012Z,7.29
2022-10-05T18:02:39.875Z,7.23
2022-10-05T18:05:18.150Z,7.16
2022-10-05T18:07:48.997Z,7.01
2022-10-05T18:10:24.915Z,6.95
2022-10-05T18:13:13.159Z,6.97
2022-10-05T18:15:44.513Z,6.86
2022-10-05T18:18:34.645Z,6.74
2022-10-05T18:21:20.810Z,6.66
2022-10-05T18:24:01.538Z,6.59
2022-10-05T18:26:33.733Z,6.58
2022-10-05T18:29:40.301Z,6.61
2022-10-05T18:32:15.858Z,6.51
2022-10-05T18:34:51.653Z,6.58
2022-10-05T18:37:26.171Z,6.55
2022-10-05T18:40:08.756Z,6.53
2022-10-05T18:42:40.779Z,6.55
2022-10-05T18:45:21.675Z,6.56
2022-10-05T18:47:53.369Z,6.72
2022-10-05T18:50:27.447Z,6.78
2022-10-05T18:53:03.269Z,6.87
2022-10-05T18:55:36.542Z,6.85
2022-10-05T18:58:12.301Z,6.77
2022-10-05T19:00:53.773Z,6.77
2022-10-05T19:03:24.964Z,6.77
2022-10-05T19:05:57.349Z,6.77
2022-10-05T19:08:30.982Z,6.84
2022-10-05T19:11:06.444Z,6.95
2022-10-05T19:13:42.911Z,7.14
2022-10-05T19:16:23.968Z,7.04
2022-10-05T19:19:01.244Z,7.22
2022-10-05T19:21:34.826Z,7.17
2022-10-05T19:24:20.556Z,7.30
2022-10-05T19:27:00.079Z,7.24
2022-10-05T19:29:36.883Z,7.26
2022-10-05T19:32:08.995Z,7.33
2022-10-05T19:34:45.054Z,7.33
2022-10-05T19:37:15.830Z,7.32
2022-10-05T19:39:49.503Z,7.33
2022-10-05T19:42:24.834Z,7.41
2022-10-05T19:44:58.369Z,7.35
2022-10-05T19:47:35.319Z,7.39
2022-10-05T19:50:26.582Z,7.30
2022-10-05T19:53:02.565Z,7.36
2022-10-05T19:55:34.807Z,7.32
2022-10-05T19:58:17.660Z,7.44
2022-10-05T20:00:49.453Z,7.47
2022-10-05T20:03:18.864Z,7.45
2022-10-05T20:05:48.349Z,7.41
2022-10-05T20:08:18.527Z,7.53
2022-10-05T20:10:47.069Z,7.57
2022-10-05T20:13:23.895Z,7.53
2022-10-05T20:16:31.098Z,7.54
2022-10-05T20:19:17.099Z,7.58
2022-10-05T20:21:50.217Z,7.62
2022-10-05T20:24:20.042Z,7.63
2022-10-05T20:27:16.162Z,7.57
2022-10-05T20:29:47.460Z,7.64
2022-10-05T20:32:19.011Z,7.63
2022-10-05T20:34:54.193Z,7.60
2022-10-05T20:37:22.140Z,7.65
2022-10-05T20:39:50.943Z,7.65
2022-10-05T20:42:20.230Z,7.55
2022-10-05T20:44:54.313Z,7.58
2022-10-05T20:47:24.694Z,7.52
2022-10-05T20:49:54.703Z,7.58
2022-10-05T20:52:23.705Z,7.66
2022-10-05T20:58:20.387Z,7.52
2022-10-05T21:01:09.729Z,7.64
2022-10-05T21:03:42.167Z,7.72
2022-10-05T21:06:12.682Z,7.68
2022-10-05T21:08:43.110Z,7.62
2022-10-05T21:11:11.381Z,7.75
2022-10-05T21:13:42.575Z,7.88
2022-10-05T21:16:13.620Z,7.93
2022-10-05T21:18:44.402Z,8.00
2022-10-05T21:21:14.487Z,7.91
2022-10-05T21:23:42.530Z,7.96
2022-10-05T21:26:11.887Z,7.96
2022-10-05T21:28:40.498Z,7.97
2022-10-05T21:31:09.061Z,7.89
2022-10-05T21:33:39.127Z,7.85
2022-10-05T21:36:07.723Z,7.70
2022-10-05T21:38:36.058Z,7.75
2022-10-05T21:41:04.445Z,7.77
2022-10-05T21:43:32.715Z,7.68
2022-10-05T21:46:01.492Z,7.69
2022-10-05T21:48:31.284Z,7.71
2022-10-05T21:51:03.347Z,7.72
2022-10-05T21:53:33.262Z,7.75
2022-10-05T21:56:03.547Z,7.65
2022-10-05T21:58:32.118Z,7.61
2022-10-05T22:01:00.260Z,7.76
2022-10-05T22:03:28.417Z,7.70
2022-10-05T22:05:56.777Z,7.76
2022-10-05T22:08:28.825Z,7.84
2022-10-05T22:10:57.513Z,7.73
2022-10-05T22:13:26.930Z,7.70
2022-10-05T22:15:56.671Z,7.76
2022-10-05T22:18:25.813Z,7.74
2022-10-05T22:20:54.527Z,7.71
2022-10-05T22:23:22.576Z,7.90
2022-10-05T22:25:52.004Z,7.98
2022-10-05T22:28:20.299Z,7.89
2022-10-05T22:30:48.496Z,7.97
2022-10-05T22:33:16.711Z,7.84
2022-10-05T22:35:44.731Z,7.89
2022-10-05T22:38:12.746Z,8.05
2022-10-05T22:40:40.994Z,7.92
2022-10-05T22:43:10.440Z,7.94
2022-10-05T22:45:38.566Z,7.93
2022-10-05T22:48:06.689Z,7.96
2022-10-05T22:50:34.755Z,8.05
2022-10-05T22:53:03.129Z,7.93
2022-10-05T22:55:31.396Z,8.01
2022-10-05T22:57:59.507Z,8.01
2022-10-05T23:00:53.402Z,8.03
2022-10-05T23:03:17.195Z,7.91
2022-10-05T23:05:45.308Z,7.97
2022-10-05T23:08:13.317Z,7.91
2022-10-05T23:10:41.296Z,7.95
2022-10-05T23:13:09.367Z,8.00
2022-10-05T23:15:38.872Z,7.99
2022-10-05T23:18:07.016Z,7.89
2022-10-05T23:20:35.048Z,7.82
2022-10-05T23:23:02.968Z,7.84
2022-10-05T23:25:31.088Z,7.88
2022-10-05T23:27:59.127Z,7.99
2022-10-05T23:30:27.206Z,7.85
2022-10-05T23:32:56.782Z,7.93
2022-10-05T23:35:24.760Z,7.99
2022-10-05T23:37:52.856Z,7.98
2022-10-05T23:40:21.195Z,7.97
2022-10-05T23:42:49.534Z,8.09
2022-10-05T23:45:17.567Z,8.12
2022-10-05T23:47:45.595Z,8.26
2022-10-05T23:50:15.102Z,8.12
2022-10-05T23:52:43.146Z,8.17
2022-10-05T23:55:11.730Z,8.27
2022-10-05T23:57:40.619Z,8.33
